Portada
METAR-TAF:

METAR-TAF

Aeroports :

Aeroport d'Oslo-Gardermoen

Oslo, Noruega

latitud: 60-12N, longitud: 011-05E, altitud: 208 m

Observació

L'informe es va fer fa 48 minuts, a les 08:50 UTC
Vent 3 kt amb direcció variable
Temperatura 6°C
Humitat 45%
Pressió 1004 hPa
Visibilitat 10 km o més
sense núvols per sota de 1500 mi sense presència de cumulonimbus.

METAR: ENGM 150850Z VRB03KT CAVOK 06/M05 Q1004 NOSIG

Hora: 11:38 (09:38 UTC)

Pronòstic

L'informe es va fer fa 4 hores i 38 minuts, a les 05:00 UTC
Pronòstic vàlid del 15 a les 06 UTC al 16 a les 06 UTC
Vent 5 kt del Nord
Visibilitat 10 km o més
sense núvols per sota de 1500 mi sense presència de cumulonimbus.
Evolucionant progressivament
l' 15 a les 09 UTC al 15 a les 11 UTC
Vent 10 kt del Sud
Evolucionant progressivament
l' 15 a les 18 UTC al 15 a les 20 UTC
Vent 7 kt del Nord

TAF: ENGM 150500Z 1506/1606 01005KT CAVOK BECMG 1509/1511 18010KT BECMG 1518/1520 01007KT

Observacions i pronòstics meteorològics de més de 4000 aeroports (METAR i TAF).

Les estacions disponibles són els punts grocs i vermells al mapa.

Posi el ratolí al punt desitjat per veure el nom de l'estació.

Feu clic per veure les observacions i els pronòstics meteorològics.

Per canviar el mapa: feu clic els botons verds amb una creu de color negre per apropar; al botó verd amb un guió per allunyar la imatge; o en les fletxes verdes per a mapes adjacents.


METAR-TAF: